Time;durP1;ratioP1;P1;durP2;ratioP2;P2;SDS_P1;SDS_P2;PMS_P1;PMS_P2;Temp;Humidity;BMP_temperature;BMP_pressure;BME280_temperature;BME280_humidity;BME280_pressure;Samples;Min_cycle;Max_cycle;Signal;HPM_P1;HPM_P2
2021/10/14 00:00:52;;;;;;;2.50;2.30;;;7.20;99.90;7.10;101269.00;;;;4937931;28;115608;-64
2021/10/14 00:03:18;;;;;;;4.57;2.50;;;7.20;99.90;7.10;101269.00;;;;4937998;28;106349;-64
2021/10/14 00:05:43;;;;;;;4.10;2.93;;;7.20;99.90;7.10;101281.00;;;;4938765;28;87649;-64
2021/10/14 00:08:09;;;;;;;5.87;2.90;;;7.20;99.90;7.10;101284.00;;;;4938500;28;97351;-64
2021/10/14 00:10:35;;;;;;;4.00;2.83;;;7.30;99.90;7.20;101293.00;;;;4936076;28;118625;-64
2021/10/14 00:13:00;;;;;;;3.83;2.27;;;7.30;99.90;7.20;101286.00;;;;4937739;28;118599;-64
2021/10/14 00:15:27;;;;;;;3.57;2.47;;;7.30;99.90;7.20;101284.00;;;;4939081;28;87930;-63
2021/10/14 00:17:53;;;;;;;3.70;2.63;;;7.30;99.90;7.20;101284.00;;;;4938429;28;87864;-65
2021/10/14 00:20:19;;;;;;;6.70;2.87;;;7.30;99.90;7.20;101287.00;;;;4938081;28;88793;-64
2021/10/14 00:22:45;;;;;;;2.30;2.10;;;7.30;99.90;7.30;101275.00;;;;4938223;28;93429;-65
2021/10/14 00:25:10;;;;;;;3.20;2.90;;;7.40;99.90;7.30;101276.00;;;;4937760;28;110196;-65
2021/10/14 00:27:36;;;;;;;2.60;2.40;;;7.30;99.90;7.30;101273.00;;;;4937746;28;108169;-64
2021/10/14 00:30:04;;;;;;;3.50;2.53;;;7.40;99.90;7.30;101268.00;;;;4937509;28;105688;-65
2021/10/14 00:32:30;;;;;;;4.30;2.57;;;7.40;99.90;7.30;101276.00;;;;4938134;28;87823;-65
2021/10/14 00:34:55;;;;;;;2.40;2.03;;;7.40;99.90;7.40;101266.00;;;;4937728;28;88814;-64
2021/10/14 00:37:21;;;;;;;7.83;2.23;;;7.50;99.90;7.40;101252.00;;;;4937804;28;109068;-65
2021/10/14 00:39:47;;;;;;;4.57;2.70;;;7.50;99.90;7.40;101258.00;;;;4936527;28;118559;-65
2021/10/14 00:42:13;;;;;;;3.37;2.07;;;7.50;99.90;7.40;101255.00;;;;4937595;28;118373;-65
2021/10/14 00:44:55;;;;;;;2.10;1.90;;;7.50;99.90;7.40;101262.00;;;;4938543;28;88044;-64
2021/10/14 00:47:28;;;;;;;3.77;2.67;;;7.50;99.90;7.40;101244.00;;;;4938249;28;87828;-64
2021/10/14 00:49:55;;;;;;;4.27;3.23;;;7.50;99.90;7.40;101244.00;;;;4936954;28;100079;-65
2021/10/14 00:52:22;;;;;;;6.23;3.17;;;7.70;99.90;7.40;101245.00;;;;4938253;28;87900;-65
2021/10/14 00:54:55;;;;;;;2.97;2.20;;;7.50;99.90;7.40;101242.00;;;;4936688;28;96831;-65
2021/10/14 00:57:21;;;;;;;3.73;2.40;;;7.50;99.90;7.40;101240.00;;;;4938197;28;87813;-63
2021/10/14 00:59:47;;;;;;;2.83;2.20;;;7.50;99.90;7.40;101233.00;;;;4918647;28;90849;-64
2021/10/14 01:02:13;;;;;;;4.23;2.23;;;7.50;99.90;7.40;101236.00;;;;4937123;28;118730;-64
2021/10/14 01:04:40;;;;;;;3.53;2.87;;;7.50;99.90;7.40;101234.00;;;;4936565;28;109785;-64
2021/10/14 01:07:07;;;;;;;2.67;2.43;;;7.50;99.90;7.40;101235.00;;;;4937274;28;108884;-65
2021/10/14 01:09:33;;;;;;;3.10;2.77;;;7.50;99.90;7.40;101238.00;;;;4935725;28;117709;-64
2021/10/14 01:12:02;;;;;;;4.17;2.53;;;7.50;99.90;7.40;101232.00;;;;4937484;28;88326;-63
2021/10/14 01:14:29;;;;;;;4.07;2.57;;;7.50;99.90;7.40;101233.00;;;;4937262;28;87774;-64
2021/10/14 01:16:55;;;;;;;6.00;2.33;;;7.50;99.90;7.40;101232.00;;;;4938269;28;94084;-64
2021/10/14 01:19:20;;;;;;;9.33;2.40;;;7.50;99.90;7.40;101241.00;;;;4936412;28;117591;-64
2021/10/14 01:21:49;;;;;;;4.70;3.13;;;7.50;99.90;7.40;101240.00;;;;4936887;28;101397;-63
2021/10/14 01:24:15;;;;;;;6.97;3.17;;;7.50;99.90;7.40;101240.00;;;;4935571;28;95941;-64
2021/10/14 01:26:42;;;;;;;6.17;2.93;;;7.50;99.90;7.40;101227.00;;;;4940599;28;87685;-64
2021/10/14 01:29:08;;;;;;;7.17;2.73;;;7.50;99.90;7.40;101235.00;;;;4936872;28;88286;-65
2021/10/14 01:31:34;;;;;;;5.17;2.77;;;7.50;99.90;7.40;101231.00;;;;4937320;28;88014;-64
2021/10/14 01:34:00;;;;;;;2.87;2.60;;;7.50;99.90;7.40;101232.00;;;;4936704;28;87753;-64
2021/10/14 01:36:26;;;;;;;3.40;3.10;;;7.50;99.90;7.40;101218.00;;;;4937271;28;87505;-65
2021/10/14 01:38:52;;;;;;;4.30;2.90;;;7.60;99.90;7.40;101227.00;;;;4936799;28;102539;-65
2021/10/14 01:41:18;;;;;;;3.93;2.70;;;7.60;99.90;7.40;101227.00;;;;4936763;28;117419;-65
2021/10/14 01:43:44;;;;;;;9.93;3.20;;;7.50;99.90;7.40;101218.00;;;;4935968;28;111490;-65
2021/10/14 01:46:10;;;;;;;3.17;2.60;;;7.50;99.90;7.50;101224.00;;;;4937135;28;90516;-65
2021/10/14 01:48:36;;;;;;;3.80;2.80;;;7.60;99.90;7.40;101232.00;;;;4918111;28;89941;-66
2021/10/14 01:51:03;;;;;;;3.63;2.90;;;7.60;99.90;7.50;101229.00;;;;4936995;28;88255;-64
2021/10/14 01:53:29;;;;;;;4.40;3.17;;;7.60;99.90;7.50;101234.00;;;;4936978;28;87695;-65
2021/10/14 01:55:55;;;;;;;4.53;3.07;;;7.60;99.90;7.50;101223.00;;;;4936950;28;87591;-64
2021/10/14 01:58:21;;;;;;;2.87;2.23;;;7.60;99.90;7.50;101222.00;;;;4937225;28;88251;-64
2021/10/14 02:00:52;;;;;;;4.00;2.80;;;7.60;99.90;7.50;101222.00;;;;4936339;28;101972;-65
2021/10/14 02:03:18;;;;;;;10.27;3.83;;;7.60;99.90;7.50;101218.00;;;;4936828;28;91622;-65
2021/10/14 02:05:44;;;;;;;3.87;3.20;;;7.60;99.90;7.50;101225.00;;;;4936128;28;105421;-65
2021/10/14 02:08:10;;;;;;;3.90;2.83;;;7.60;99.90;7.50;101222.00;;;;4936472;28;99125;-66
2021/10/14 02:10:36;;;;;;;7.77;2.80;;;7.60;99.90;7.50;101225.00;;;;4936764;28;101289;-64
2021/10/14 02:13:03;;;;;;;3.80;3.33;;;7.60;99.90;7.60;101222.00;;;;4935559;28;109090;-65
2021/10/14 02:15:30;;;;;;;4.67;2.50;;;6.90;99.90;7.60;101227.00;;;;4936381;28;88638;-65
2021/10/14 02:17:56;;;;;;;7.87;3.17;;;7.60;99.90;7.60;101222.00;;;;4936798;28;87919;-65
2021/10/14 02:20:22;;;;;;;8.77;3.27;;;7.70;99.90;7.60;101226.00;;;;4936504;28;103161;-66
2021/10/14 02:22:48;;;;;;;3.03;2.73;;;7.70;99.90;7.60;101223.00;;;;4936892;28;87718;-65
2021/10/14 02:25:15;;;;;;;4.57;3.20;;;7.70;99.90;7.60;101222.00;;;;4936594;28;87577;-65
2021/10/14 02:27:41;;;;;;;4.47;2.70;;;7.70;99.90;7.70;101223.00;;;;4936089;28;101790;-65
2021/10/14 02:30:09;;;;;;;6.67;3.20;;;7.70;99.90;7.70;101224.00;;;;4936179;28;88079;-65
2021/10/14 02:32:35;;;;;;;3.40;2.90;;;7.80;99.90;7.70;101221.00;;;;4935268;28;95282;-65
2021/10/14 02:35:03;;;;;;;3.50;2.50;;;7.80;99.90;7.70;101218.00;;;;4901981;28;87894;-64
2021/10/14 02:37:28;;;;;;;4.03;3.13;;;7.80;99.90;7.70;101215.00;;;;4936105;28;89349;-64
2021/10/14 02:39:55;;;;;;;2.63;2.40;;;7.90;99.90;7.80;101214.00;;;;4934903;28;118165;-64
2021/10/14 02:42:21;;;;;;;4.37;2.80;;;7.80;99.90;7.70;101201.00;;;;4936209;28;93057;-65
2021/10/14 02:44:46;;;;;;;3.43;2.70;;;7.90;99.90;7.80;101202.00;;;;4935730;28;92062;-64
2021/10/14 02:47:12;;;;;;;3.03;2.73;;;7.80;99.90;7.80;101193.00;;;;4936485;28;88088;-64
2021/10/14 02:49:38;;;;;;;3.23;2.60;;;7.90;99.90;7.80;101199.00;;;;4934847;28;116552;-65
2021/10/14 02:52:05;;;;;;;6.37;3.23;;;7.80;99.90;7.80;101213.00;;;;4936435;28;94114;-65
2021/10/14 02:54:31;;;;;;;3.80;2.87;;;7.90;99.90;7.80;101211.00;;;;4936378;28;87037;-65
2021/10/14 02:56:56;;;;;;;3.77;2.87;;;7.90;99.90;7.80;101213.00;;;;4936194;28;94400;-63
2021/10/14 02:59:22;;;;;;;7.83;3.20;;;7.90;99.90;7.80;101209.00;;;;4935405;28;116994;-64
2021/10/14 03:01:48;;;;;;;3.40;2.50;;;7.90;99.90;7.80;101211.00;;;;4935163;28;109508;-65
2021/10/14 03:04:13;;;;;;;4.13;2.70;;;7.90;99.90;7.80;101205.00;;;;4936184;28;87566;-64
2021/10/14 03:06:39;;;;;;;3.80;2.77;;;7.90;99.90;7.80;101205.00;;;;4935358;28;116602;-62
2021/10/14 03:09:05;;;;;;;6.10;3.03;;;7.90;99.90;7.80;101198.00;;;;4935180;28;118102;-62
2021/10/14 03:11:31;;;;;;;5.97;3.37;;;7.90;99.90;7.90;101202.00;;;;4936652;28;87541;-64
2021/10/14 03:13:57;;;;;;;3.23;2.93;;;7.90;99.90;7.90;101202.00;;;;4935862;28;87879;-62
2021/10/14 03:16:23;;;;;;;5.40;2.93;;;8.00;99.90;7.90;101205.00;;;;4935378;28;111714;-63
2021/10/14 03:18:48;;;;;;;4.87;3.33;;;7.90;99.90;7.90;101196.00;;;;4936293;28;87262;-64
2021/10/14 03:21:15;;;;;;;2.73;2.10;;;8.00;99.90;7.90;101209.00;;;;4936405;28;87956;-63
2021/10/14 03:23:41;;;;;;;6.93;3.43;;;7.90;99.90;7.90;101205.00;;;;4935850;28;92389;-64
2021/10/14 03:26:07;;;;;;;4.87;3.13;;;8.00;99.90;7.90;101200.00;;;;4935026;28;89898;-64
2021/10/14 03:28:33;;;;;;;4.43;3.07;;;7.90;99.90;7.90;101204.00;;;;4935009;28;117443;-64
2021/10/14 03:30:59;;;;;;;5.27;3.20;;;7.90;99.90;7.90;101197.00;;;;4935059;28;110530;-63
2021/10/14 03:33:24;;;;;;;3.13;2.47;;;6.70;99.90;7.90;101200.00;;;;4935751;28;90665;-63
2021/10/14 03:35:50;;;;;;;3.63;2.67;;;8.00;99.90;7.90;101205.00;;;;4934555;28;117203;-63
2021/10/14 03:38:16;;;;;;;5.57;3.10;;;8.00;99.90;7.90;101204.00;;;;4935207;28;94597;-63
2021/10/14 03:40:42;;;;;;;6.50;2.73;;;8.00;99.90;7.90;101203.00;;;;4935159;28;109439;-63
2021/10/14 03:43:08;;;;;;;7.03;3.17;;;8.00;99.90;7.90;101200.00;;;;4935961;28;87042;-64
2021/10/14 03:45:34;;;;;;;3.23;2.80;;;8.00;99.90;7.90;101207.00;;;;4937698;28;116483;-63
2021/10/14 03:47:59;;;;;;;5.63;3.53;;;8.00;99.90;8.00;101208.00;;;;4921223;28;88089;-63
2021/10/14 03:50:26;;;;;;;4.83;3.57;;;8.00;99.90;8.00;101202.00;;;;4938861;28;88936;-65
2021/10/14 03:52:51;;;;;;;4.73;3.37;;;8.00;99.90;8.00;101203.00;;;;4939435;28;87692;-63
2021/10/14 03:55:17;;;;;;;6.80;3.23;;;8.00;99.90;8.00;101201.00;;;;4937273;28;117520;-64
2021/10/14 03:57:43;;;;;;;7.20;3.90;;;8.00;99.90;8.00;101207.00;;;;4938882;28;87662;-63
2021/10/14 04:00:10;;;;;;;5.83;3.37;;;8.10;99.90;8.10;101203.00;;;;4938940;28;88044;-65
2021/10/14 04:02:35;;;;;;;4.80;3.30;;;8.10;99.90;8.10;101209.00;;;;4920398;28;87792;-62
2021/10/14 04:05:03;;;;;;;4.70;3.30;;;8.20;99.90;8.10;101201.00;;;;4937933;28;101799;-64
2021/10/14 04:07:28;;;;;;;9.30;3.70;;;8.20;99.90;8.10;101202.00;;;;4938878;28;88796;-62
2021/10/14 04:09:54;;;;;;;8.63;4.47;;;8.20;99.90;8.10;101198.00;;;;4937236;28;111384;-64
2021/10/14 04:12:20;;;;;;;5.93;3.90;;;8.20;99.90;8.10;101190.00;;;;4938059;28;98377;-64
2021/10/14 04:14:46;;;;;;;6.03;3.67;;;8.50;99.90;8.10;101189.00;;;;4937037;28;118982;-63
2021/10/14 04:17:11;;;;;;;4.50;4.00;;;8.20;99.90;8.10;101198.00;;;;4937426;28;119358;-62
2021/10/14 04:19:37;;;;;;;6.70;4.60;;;8.20;99.90;8.10;101201.00;;;;4939033;28;88244;-64
2021/10/14 04:22:04;;;;;;;6.13;4.10;;;8.20;99.90;8.10;101198.00;;;;4938517;28;87687;-62
2021/10/14 04:24:30;;;;;;;6.27;4.10;;;8.20;99.90;8.10;101191.00;;;;4937448;28;89062;-63
2021/10/14 04:26:56;;;;;;;5.27;3.90;;;8.20;99.90;8.10;101191.00;;;;4938295;28;91977;-64
2021/10/14 04:29:22;;;;;;;7.03;4.30;;;8.20;99.90;8.10;101198.00;;;;4938020;28;87849;-65
2021/10/14 04:31:48;;;;;;;5.67;3.93;;;8.20;99.90;8.10;101199.00;;;;4937503;28;109722;-64
2021/10/14 04:34:15;;;;;;;7.07;4.97;;;8.20;99.90;8.10;101193.00;;;;4937731;28;88929;-64
2021/10/14 04:36:41;;;;;;;7.27;4.53;;;8.20;99.90;8.10;101191.00;;;;4919836;28;96240;-62
2021/10/14 04:39:07;;;;;;;5.23;4.17;;;8.30;99.90;8.10;101193.00;;;;4936778;28;109624;-64
2021/10/14 04:41:33;;;;;;;5.80;4.23;;;8.20;99.90;8.10;101183.00;;;;4937173;28;109223;-62
2021/10/14 04:43:59;;;;;;;7.57;4.87;;;8.20;99.90;8.20;101182.00;;;;4919418;28;102479;-64
2021/10/14 04:46:25;;;;;;;7.70;4.57;;;8.20;99.90;8.20;101184.00;;;;4937332;28;87704;-64
2021/10/14 04:48:51;;;;;;;5.93;4.10;;;8.20;99.90;8.20;101174.00;;;;4937209;28;110658;-64
2021/10/14 04:51:17;;;;;;;8.53;5.73;;;8.20;99.90;8.20;101175.00;;;;4936937;28;108683;-63
2021/10/14 04:53:43;;;;;;;8.87;5.63;;;8.20;99.90;8.20;101175.00;;;;4937961;28;88229;-63
2021/10/14 04:56:09;;;;;;;5.67;4.53;;;8.20;99.90;8.20;101175.00;;;;4936335;28;117649;-63
2021/10/14 04:58:34;;;;;;;5.87;4.00;;;8.20;99.90;8.20;101169.00;;;;4937798;28;87626;-62
2021/10/14 05:01:00;;;;;;;9.27;4.93;;;8.30;99.90;8.20;101175.00;;;;4936436;28;109245;-62
2021/10/14 05:03:26;;;;;;;7.40;4.30;;;8.30;99.90;8.20;101168.00;;;;4936552;28;117974;-62
2021/10/14 05:05:51;;;;;;;7.67;4.83;;;8.30;99.90;8.30;101175.00;;;;4938381;28;89075;-63
2021/10/14 05:08:17;;;;;;;7.83;5.67;;;8.30;99.90;8.30;101163.00;;;;4945677;28;109583;-62
2021/10/14 05:10:43;;;;;;;10.17;5.67;;;8.30;99.90;8.30;101164.00;;;;4941137;28;108382;-62
2021/10/14 05:13:09;;;;;;;6.37;5.20;;;8.40;99.90;8.30;101163.00;;;;4936867;28;117286;-63
2021/10/14 05:15:39;;;;;;;7.47;5.10;;;8.40;99.90;8.30;101164.00;;;;4936294;28;118729;-63
2021/10/14 05:18:05;;;;;;;7.77;5.27;;;8.40;99.90;8.30;101159.00;;;;4937379;28;87903;-63
2021/10/14 05:20:31;;;;;;;5.63;4.57;;;8.40;99.90;8.30;101153.00;;;;4937880;28;86777;-63
2021/10/14 05:22:57;;;;;;;8.90;5.03;;;8.40;99.90;8.30;101160.00;;;;4937596;28;88172;-62
2021/10/14 05:25:23;;;;;;;7.47;4.73;;;8.40;99.90;8.30;101150.00;;;;4937155;28;87860;-64
2021/10/14 05:27:49;;;;;;;14.33;5.43;;;8.40;99.90;8.40;101153.00;;;;4936850;28;88690;-61
2021/10/14 05:30:16;;;;;;;8.27;5.73;;;8.40;99.90;8.40;101152.00;;;;4937392;28;87842;-63
2021/10/14 05:32:41;;;;;;;8.40;5.47;;;8.40;99.90;8.40;101156.00;;;;4936794;28;97340;-62
2021/10/14 05:35:08;;;;;;;8.57;5.07;;;8.40;99.90;8.40;101153.00;;;;4935945;28;117256;-64
2021/10/14 05:37:34;;;;;;;8.47;5.27;;;8.50;99.90;8.40;101152.00;;;;4936983;28;93683;-63
2021/10/14 05:39:59;;;;;;;6.77;4.63;;;8.50;99.90;8.40;101154.00;;;;4935945;28;95704;-63
2021/10/14 05:42:26;;;;;;;5.17;4.20;;;8.50;99.90;8.40;101154.00;;;;4937231;28;88294;-63
2021/10/14 05:44:52;;;;;;;8.80;5.33;;;8.50;99.90;8.40;101142.00;;;;4937618;28;88167;-63
2021/10/14 05:47:17;;;;;;;10.33;5.40;;;8.50;99.90;8.40;101149.00;;;;4936407;28;107308;-62
2021/10/14 05:49:43;;;;;;;6.93;4.50;;;8.50;99.90;8.50;101148.00;;;;4936877;28;87901;-63
2021/10/14 05:52:09;;;;;;;8.13;4.77;;;8.50;99.90;8.50;101149.00;;;;4935889;28;116187;-63
2021/10/14 05:54:34;;;;;;;12.27;5.50;;;8.50;99.90;8.50;101147.00;;;;4935771;28;118310;-63
2021/10/14 05:57:00;;;;;;;15.97;5.87;;;8.50;99.90;8.50;101144.00;;;;4936253;28;109325;-63
2021/10/14 05:59:26;;;;;;;6.30;5.07;;;8.50;99.90;8.50;101149.00;;;;4935912;28;109821;-64
2021/10/14 06:01:52;;;;;;;7.10;4.90;;;8.60;99.90;8.50;101151.00;;;;4935597;28;88927;-64
2021/10/14 06:04:17;;;;;;;8.03;4.93;;;8.60;99.90;8.50;101145.00;;;;4935966;28;117676;-63
2021/10/14 06:06:44;;;;;;;10.30;5.07;;;8.50;99.90;8.50;101153.00;;;;4935306;28;109308;-63
2021/10/14 06:09:10;;;;;;;7.27;4.47;;;8.60;99.90;8.50;101147.00;;;;4936557;28;87700;-61
2021/10/14 06:11:35;;;;;;;6.73;4.00;;;8.60;99.90;8.60;101152.00;;;;4935508;28;116853;-60
2021/10/14 06:14:01;;;;;;;8.30;4.57;;;8.60;99.90;8.60;101156.00;;;;4935627;28;117714;-63
2021/10/14 06:16:27;;;;;;;5.97;3.90;;;8.60;99.90;8.60;101152.00;;;;4935134;28;110622;-62
2021/10/14 06:18:53;;;;;;;10.20;4.63;;;8.60;99.90;8.60;101154.00;;;;4936603;28;108996;-63
2021/10/14 06:21:19;;;;;;;6.87;4.00;;;8.60;99.90;8.60;101154.00;;;;4935428;28;118629;-63
2021/10/14 06:23:45;;;;;;;9.50;4.50;;;8.70;99.90;8.60;101143.00;;;;4936088;28;87755;-62
2021/10/14 06:26:11;;;;;;;8.90;3.37;;;8.70;99.90;8.60;101145.00;;;;4937178;28;87824;-63
2021/10/14 06:28:37;;;;;;;4.27;3.60;;;8.70;99.90;8.60;101146.00;;;;4918462;28;87766;-62
2021/10/14 06:31:02;;;;;;;3.87;3.10;;;8.70;99.90;8.60;101150.00;;;;4936913;28;95406;-62
2021/10/14 06:33:29;;;;;;;3.57;3.13;;;8.70;99.90;8.70;101149.00;;;;4936459;28;117762;-60
2021/10/14 06:35:54;;;;;;;6.47;3.90;;;8.70;99.90;8.70;101147.00;;;;4935447;28;110166;-61
2021/10/14 06:38:20;;;;;;;4.53;3.23;;;8.70;99.90;8.70;101152.00;;;;4936846;28;87733;-62
2021/10/14 06:40:46;;;;;;;4.67;3.40;;;8.70;99.90;8.70;101148.00;;;;4935075;28;118326;-62
2021/10/14 06:43:11;;;;;;;4.10;3.10;;;8.70;99.90;8.70;101154.00;;;;4936467;28;91504;-62
2021/10/14 06:45:37;;;;;;;5.47;3.00;;;8.80;99.90;8.70;101154.00;;;;4937104;28;88081;-63
2021/10/14 06:48:03;;;;;;;4.80;3.30;;;8.80;99.90;8.80;101148.00;;;;4936112;28;87549;-63
2021/10/14 06:50:30;;;;;;;4.20;3.50;;;8.80;99.90;8.80;101144.00;;;;4935868;28;98631;-62
2021/10/14 06:52:56;;;;;;;4.83;3.33;;;8.80;99.90;8.80;101141.00;;;;4936352;28;88949;-62
2021/10/14 06:55:22;;;;;;;4.37;3.30;;;8.90;99.90;8.80;101143.00;;;;4936653;28;87845;-62
2021/10/14 06:57:48;;;;;;;3.87;2.93;;;8.80;99.90;8.80;101139.00;;;;4935876;28;108346;-61
2021/10/14 07:00:14;;;;;;;4.67;3.60;;;8.90;99.90;8.90;101132.00;;;;4934692;28;118526;-61
2021/10/14 07:02:40;;;;;;;4.67;3.20;;;8.90;99.90;8.90;101136.00;;;;4898361;28;88290;-61
2021/10/14 07:05:06;;;;;;;4.53;2.47;;;8.90;99.90;8.90;101146.00;;;;4915943;28;88753;-62
2021/10/14 07:07:32;;;;;;;5.37;3.50;;;8.90;99.90;8.90;101135.00;;;;4929932;28;87658;-62
2021/10/14 07:09:58;;;;;;;3.30;2.50;;;9.00;99.90;9.00;101134.00;;;;4935918;28;88361;-61
2021/10/14 07:12:28;;;;;;;4.63;2.73;;;9.00;99.90;8.90;101145.00;;;;4934927;28;117284;-63
2021/10/14 07:14:54;;;;;;;5.10;3.00;;;9.00;99.90;9.00;101137.00;;;;4918506;28;87675;-62
2021/10/14 07:17:21;;;;;;;2.80;2.33;;;9.00;99.90;9.00;101132.00;;;;4936273;28;87737;-62
2021/10/14 07:19:47;;;;;;;3.27;2.63;;;9.00;99.90;9.00;101132.00;;;;4937614;28;94097;-63
2021/10/14 07:22:12;;;;;;;4.60;2.57;;;9.00;99.90;9.00;101133.00;;;;4921434;28;87649;-61
2021/10/14 07:24:38;;;;;;;4.37;2.67;;;9.10;99.90;9.00;101138.00;;;;4938253;28;110747;-63
2021/10/14 07:27:05;;;;;;;3.67;2.50;;;9.10;99.90;9.10;101128.00;;;;4939053;28;93487;-62
2021/10/14 07:29:32;;;;;;;3.83;2.13;;;9.90;99.90;9.10;101141.00;;;;4938474;28;89825;-63
2021/10/14 07:31:57;;;;;;;4.00;2.77;;;9.20;99.90;9.20;101139.00;;;;4939643;28;88179;-62
2021/10/14 07:34:23;;;;;;;5.13;2.90;;;9.20;99.90;9.20;101144.00;;;;4938656;28;110082;-62
2021/10/14 07:36:49;;;;;;;3.93;2.67;;;9.20;99.90;9.20;101142.00;;;;4940003;28;87685;-64
2021/10/14 07:39:15;;;;;;;2.97;2.20;;;9.20;99.90;9.20;101142.00;;;;4938402;28;116263;-61
2021/10/14 07:41:40;;;;;;;4.70;3.40;;;9.70;99.90;9.20;101131.00;;;;4920362;28;116364;-64
2021/10/14 07:44:07;;;;;;;3.67;2.63;;;9.30;99.90;9.30;101142.00;;;;4939303;28;87794;-63
2021/10/14 07:46:32;;;;;;;4.50;3.60;;;9.20;99.90;9.30;101145.00;;;;4939339;28;87076;-63
2021/10/14 07:48:58;;;;;;;4.33;3.57;;;9.40;99.90;9.30;101136.00;;;;4938827;28;87748;-63
2021/10/14 07:51:24;;;;;;;5.83;3.87;;;9.50;99.90;9.30;101132.00;;;;4938951;28;96938;-61
2021/10/14 07:53:49;;;;;;;4.30;3.90;;;9.40;99.90;9.40;101137.00;;;;4938437;28;88698;-63
2021/10/14 07:56:15;;;;;;;4.67;3.50;;;9.40;99.90;9.40;101139.00;;;;4938218;28;107320;-63
2021/10/14 07:58:41;;;;;;;5.67;3.47;;;9.40;99.90;9.50;101140.00;;;;4937593;28;112224;-63
2021/10/14 08:01:11;;;;;;;6.27;4.67;;;9.40;99.90;9.50;101152.00;;;;4937590;28;116135;-63
2021/10/14 08:03:38;;;;;;;5.17;4.30;;;9.50;99.90;9.50;101148.00;;;;4938874;28;87688;-63
2021/10/14 08:06:03;;;;;;;4.40;3.87;;;9.60;99.90;9.50;101142.00;;;;4938935;28;87833;-64
2021/10/14 08:08:29;;;;;;;4.97;4.47;;;9.60;99.90;9.50;101147.00;;;;4936885;28;118646;-63
2021/10/14 08:10:55;;;;;;;6.30;5.43;;;9.60;99.90;9.60;101149.00;;;;4937614;28;117689;-63
2021/10/14 08:13:20;;;;;;;8.40;4.83;;;9.60;99.90;9.60;101144.00;;;;4939023;28;87914;-63
2021/10/14 08:15:50;;;;;;;4.70;3.87;;;9.60;99.90;9.60;101146.00;;;;4938993;28;87654;-63
2021/10/14 08:18:17;;;;;;;5.03;4.10;;;9.70;99.90;9.60;101149.00;;;;4937757;28;88687;-63
2021/10/14 08:20:44;;;;;;;5.73;4.57;;;9.70;99.90;9.70;101141.00;;;;4938414;28;89864;-63
2021/10/14 08:23:10;;;;;;;4.47;4.00;;;9.70;99.90;9.70;101130.00;;;;4937735;28;88277;-64
2021/10/14 08:25:35;;;;;;;3.97;3.27;;;9.70;99.90;9.70;101141.00;;;;4936967;28;109173;-63
2021/10/14 08:28:01;;;;;;;7.10;5.30;;;9.70;99.90;9.70;101136.00;;;;4938640;28;88303;-63
2021/10/14 08:30:27;;;;;;;6.53;4.70;;;9.70;99.90;9.70;101140.00;;;;4937073;28;111350;-63
2021/10/14 08:32:54;;;;;;;6.90;4.70;;;9.70;99.90;9.70;101137.00;;;;4938206;28;87768;-63
2021/10/14 08:35:21;;;;;;;5.40;3.80;;;9.80;99.90;9.70;101139.00;;;;4937898;28;87544;-64
2021/10/14 08:37:48;;;;;;;4.23;3.43;;;9.80;99.90;9.80;101144.00;;;;4937846;28;88138;-63
2021/10/14 08:40:17;;;;;;;6.80;4.07;;;9.70;99.90;9.70;101130.00;;;;4937002;28;88708;-64
2021/10/14 08:42:44;;;;;;;6.47;4.87;;;9.80;99.90;9.80;101142.00;;;;4940829;28;88998;-62
2021/10/14 08:45:12;;;;;;;5.07;3.80;;;9.80;99.90;9.80;101151.00;;;;4937697;28;108938;-63
2021/10/14 08:47:40;;;;;;;6.67;4.77;;;10.10;99.90;9.80;101140.00;;;;4936471;28;89163;-63
2021/10/14 08:50:08;;;;;;;7.43;4.00;;;9.80;99.90;9.90;101138.00;;;;4937042;28;88009;-64
2021/10/14 08:52:34;;;;;;;6.57;4.40;;;9.90;99.90;9.90;101139.00;;;;4937770;28;87639;-63
2021/10/14 08:55:00;;;;;;;6.53;4.17;;;9.90;99.90;9.90;101137.00;;;;4935825;28;108767;-63
2021/10/14 08:57:28;;;;;;;9.43;4.57;;;9.90;99.90;9.90;101122.00;;;;4935537;28;118237;-63
2021/10/14 08:59:54;;;;;;;3.97;3.60;;;10.00;99.90;10.00;101129.00;;;;4936694;28;88466;-63
2021/10/14 09:02:21;;;;;;;4.40;4.00;;;10.00;99.90;10.00;101130.00;;;;4937141;28;91715;-63
2021/10/14 09:04:53;;;;;;;4.00;3.50;;;10.00;99.90;10.00;101136.00;;;;4937244;28;88078;-63
2021/10/14 09:07:22;;;;;;;5.03;4.47;;;10.00;99.90;10.00;101128.00;;;;4936556;28;89487;-62
2021/10/14 09:09:49;;;;;;;4.70;4.00;;;10.00;99.90;10.00;101125.00;;;;4936308;28;89609;-63
2021/10/14 09:12:19;;;;;;;5.50;3.53;;;10.00;99.90;10.00;101127.00;;;;4937384;28;87800;-63
2021/10/14 09:15:11;;;;;;;8.10;4.77;;;10.10;99.90;10.10;101128.00;;;;4936168;28;89806;-63
2021/10/14 09:17:37;;;;;;;4.53;4.13;;;10.10;99.90;10.10;101134.00;;;;4936883;28;88204;-63
2021/10/14 09:20:36;;;;;;;5.87;4.03;;;10.10;99.90;10.10;101128.00;;;;4936824;28;88488;-63
2021/10/14 09:23:21;;;;;;;6.10;4.87;;;10.20;99.90;10.10;101133.00;;;;4937089;28;87780;-63
2021/10/14 09:25:50;;;;;;;8.00;5.03;;;10.20;99.90;10.20;101129.00;;;;4937175;28;87029;-63
2021/10/14 09:28:24;;;;;;;7.53;5.03;;;10.20;99.90;10.20;101129.00;;;;4936702;28;87718;-63
2021/10/14 09:31:01;;;;;;;6.97;5.30;;;10.20;99.90;10.20;101117.00;;;;4936977;28;88219;-63
2021/10/14 09:33:41;;;;;;;6.50;4.97;;;10.30;99.90;10.20;101116.00;;;;4936653;28;88687;-63
2021/10/14 09:36:25;;;;;;;6.67;5.23;;;10.30;99.90;10.20;101127.00;;;;4936832;28;87598;-65
2021/10/14 09:39:06;;;;;;;9.63;6.27;;;10.20;99.90;10.30;101125.00;;;;4917419;28;88298;-63
2021/10/14 09:41:41;;;;;;;8.60;6.67;;;10.30;99.90;10.30;101125.00;;;;4920970;28;88249;-63
2021/10/14 09:44:13;;;;;;;8.20;5.90;;;10.30;99.90;10.30;101118.00;;;;4936998;28;88404;-63
2021/10/14 09:46:46;;;;;;;6.83;5.77;;;10.40;99.90;10.30;101120.00;;;;4935924;28;88059;-64
2021/10/14 09:49:30;;;;;;;8.03;5.47;;;10.40;99.90;10.40;101117.00;;;;4936176;28;89189;-63
2021/10/14 09:52:00;;;;;;;8.90;6.47;;;10.40;99.90;10.40;101126.00;;;;4936651;28;88489;-63
2021/10/14 09:54:27;;;;;;;7.57;6.30;;;10.40;99.90;10.40;101127.00;;;;4937206;28;87933;-64
2021/10/14 09:56:54;;;;;;;9.90;6.43;;;10.30;99.90;10.50;101135.00;;;;4936860;28;87881;-63
2021/10/14 09:59:20;;;;;;;7.67;6.40;;;10.50;99.90;10.60;101135.00;;;;4917515;28;89411;-63
2021/10/14 10:01:48;;;;;;;10.20;7.03;;;10.60;99.90;10.60;101127.00;;;;4934195;28;119163;-63
2021/10/14 10:04:14;;;;;;;8.23;6.30;;;10.60;99.90;10.60;101126.00;;;;4936270;28;87550;-62
2021/10/14 10:06:42;;;;;;;8.43;6.57;;;10.60;99.90;10.70;101129.00;;;;4935947;28;91027;-62
2021/10/14 10:09:38;;;;;;;9.90;7.60;;;10.70;99.90;10.60;101130.00;;;;4916903;28;117731;-63
2021/10/14 10:12:06;;;;;;;10.50;7.17;;;10.60;99.90;10.70;101134.00;;;;4915936;28;95026;-63
2021/10/14 10:14:32;;;;;;;11.50;7.80;;;10.70;99.90;10.70;101125.00;;;;4918055;28;88033;-63
2021/10/14 10:17:01;;;;;;;13.07;7.50;;;10.70;99.90;10.70;101131.00;;;;4917838;28;107901;-63
2021/10/14 10:19:49;;;;;;;10.50;7.23;;;10.70;99.90;10.70;101128.00;;;;4936226;28;88273;-62
2021/10/14 10:22:33;;;;;;;8.07;7.07;;;10.70;99.90;10.70;101123.00;;;;4935293;28;88508;-62
2021/10/14 10:25:23;;;;;;;8.03;6.37;;;10.70;99.90;10.70;101119.00;;;;4935770;28;88478;-62
2021/10/14 10:27:49;;;;;;;8.07;6.83;;;10.80;99.90;10.70;101117.00;;;;4936150;28;87740;-62
2021/10/14 10:30:34;;;;;;;9.73;6.90;;;10.80;99.90;10.70;101121.00;;;;4935048;28;88637;-62
2021/10/14 10:33:00;;;;;;;10.30;7.20;;;10.80;99.90;10.80;101120.00;;;;4935753;28;87771;-61
2021/10/14 10:35:46;;;;;;;9.70;7.23;;;10.80;99.90;10.70;101118.00;;;;4935716;28;87924;-62
2021/10/14 10:38:22;;;;;;;10.17;8.00;;;10.80;99.90;10.80;101126.00;;;;4936216;28;87670;-62
2021/10/14 10:40:52;;;;;;;8.47;7.17;;;10.80;99.90;10.80;101114.00;;;;4935499;28;89535;-62
2021/10/14 10:43:26;;;;;;;10.93;6.70;;;10.80;99.90;10.80;101123.00;;;;4917334;28;89740;-62
2021/10/14 10:46:16;;;;;;;12.97;7.13;;;10.80;99.90;10.70;101118.00;;;;4917759;28;87834;-61
2021/10/14 10:48:44;;;;;;;9.53;7.60;;;10.80;99.90;10.80;101120.00;;;;4935908;28;87650;-61
2021/10/14 10:51:27;;;;;;;8.60;6.70;;;10.80;99.90;10.80;101118.00;;;;4934651;28;90264;-62
2021/10/14 10:53:53;;;;;;;14.03;7.90;;;10.80;99.90;10.80;101123.00;;;;4935257;28;88804;-62
2021/10/14 10:56:34;;;;;;;10.37;6.67;;;10.80;99.90;10.80;101115.00;;;;4935708;28;88076;-62